sensor_id;sensor_type;location;lat;lon;timestamp;P1;durP1;ratioP1;P2;durP2;ratioP2
61017;SDS011;48171;51.550;5.434;2023-03-01T00:01:02;25.65;;;10.43;;
61017;SDS011;48171;51.550;5.434;2023-03-01T00:03:32;22.70;;;11.35;;
61017;SDS011;48171;51.550;5.434;2023-03-01T00:05:58;22.17;;;10.73;;
61017;SDS011;48171;51.550;5.434;2023-03-01T00:08:24;24.60;;;11.82;;
61017;SDS011;48171;51.550;5.434;2023-03-01T00:10:59;24.35;;;10.95;;
61017;SDS011;48171;51.550;5.434;2023-03-01T00:13:25;24.27;;;10.77;;
61017;SDS011;48171;51.550;5.434;2023-03-01T00:15:50;26.45;;;11.18;;
61017;SDS011;48171;51.550;5.434;2023-03-01T00:18:15;27.35;;;10.75;;
61017;SDS011;48171;51.550;5.434;2023-03-01T00:20:41;24.10;;;11.07;;
61017;SDS011;48171;51.550;5.434;2023-03-01T00:23:06;25.73;;;11.27;;
61017;SDS011;48171;51.550;5.434;2023-03-01T00:25:31;24.45;;;11.55;;
61017;SDS011;48171;51.550;5.434;2023-03-01T00:27:57;18.75;;;9.93;;
61017;SDS011;48171;51.550;5.434;2023-03-01T00:30:22;23.80;;;11.00;;
61017;SDS011;48171;51.550;5.434;2023-03-01T00:32:47;22.38;;;10.82;;
61017;SDS011;48171;51.550;5.434;2023-03-01T00:35:12;24.77;;;11.15;;
61017;SDS011;48171;51.550;5.434;2023-03-01T00:37:38;27.45;;;11.38;;
61017;SDS011;48171;51.550;5.434;2023-03-01T00:40:03;24.80;;;11.63;;
61017;SDS011;48171;51.550;5.434;2023-03-01T00:42:31;28.00;;;11.23;;
61017;SDS011;48171;51.550;5.434;2023-03-01T00:44:56;26.17;;;11.52;;
61017;SDS011;48171;51.550;5.434;2023-03-01T00:47:21;26.65;;;11.38;;
61017;SDS011;48171;51.550;5.434;2023-03-01T00:49:47;25.23;;;11.15;;
61017;SDS011;48171;51.550;5.434;2023-03-01T00:52:13;22.60;;;10.98;;
61017;SDS011;48171;51.550;5.434;2023-03-01T00:54:38;23.75;;;11.43;;
61017;SDS011;48171;51.550;5.434;2023-03-01T00:57:03;22.77;;;11.27;;
61017;SDS011;48171;51.550;5.434;2023-03-01T00:59:29;24.42;;;11.52;;
61017;SDS011;48171;51.550;5.434;2023-03-01T01:01:54;22.27;;;11.50;;
61017;SDS011;48171;51.550;5.434;2023-03-01T01:04:19;29.25;;;11.13;;
61017;SDS011;48171;51.550;5.434;2023-03-01T01:06:45;24.38;;;11.40;;
61017;SDS011;48171;51.550;5.434;2023-03-01T01:09:12;24.23;;;10.82;;
61017;SDS011;48171;51.550;5.434;2023-03-01T01:11:42;23.23;;;11.18;;
61017;SDS011;48171;51.550;5.434;2023-03-01T01:14:08;23.27;;;10.73;;
61017;SDS011;48171;51.550;5.434;2023-03-01T01:16:34;23.05;;;10.73;;
61017;SDS011;48171;51.550;5.434;2023-03-01T01:18:59;23.70;;;11.85;;
61017;SDS011;48171;51.550;5.434;2023-03-01T01:21:25;23.38;;;10.88;;
61017;SDS011;48171;51.550;5.434;2023-03-01T01:23:51;24.65;;;11.52;;
61017;SDS011;48171;51.550;5.434;2023-03-01T01:26:20;21.00;;;10.63;;
61017;SDS011;48171;51.550;5.434;2023-03-01T01:28:53;24.65;;;11.13;;
61017;SDS011;48171;51.550;5.434;2023-03-01T01:31:19;25.70;;;11.25;;
61017;SDS011;48171;51.550;5.434;2023-03-01T01:33:48;28.17;;;12.23;;
61017;SDS011;48171;51.550;5.434;2023-03-01T01:36:13;23.15;;;10.65;;
61017;SDS011;48171;51.550;5.434;2023-03-01T01:38:39;22.35;;;11.25;;
61017;SDS011;48171;51.550;5.434;2023-03-01T01:41:05;24.23;;;11.52;;
61017;SDS011;48171;51.550;5.434;2023-03-01T01:43:33;24.98;;;11.13;;
61017;SDS011;48171;51.550;5.434;2023-03-01T01:46:04;28.42;;;10.70;;
61017;SDS011;48171;51.550;5.434;2023-03-01T01:48:52;25.67;;;10.18;;
61017;SDS011;48171;51.550;5.434;2023-03-01T01:51:23;21.38;;;10.50;;
61017;SDS011;48171;51.550;5.434;2023-03-01T01:53:53;24.27;;;11.32;;
61017;SDS011;48171;51.550;5.434;2023-03-01T01:56:23;21.73;;;10.30;;
61017;SDS011;48171;51.550;5.434;2023-03-01T01:58:50;25.83;;;11.15;;
61017;SDS011;48171;51.550;5.434;2023-03-01T02:01:16;25.65;;;11.77;;
61017;SDS011;48171;51.550;5.434;2023-03-01T02:03:42;26.30;;;11.73;;
61017;SDS011;48171;51.550;5.434;2023-03-01T02:06:17;26.30;;;11.33;;
61017;SDS011;48171;51.550;5.434;2023-03-01T02:08:55;23.13;;;11.13;;
61017;SDS011;48171;51.550;5.434;2023-03-01T02:11:25;23.73;;;11.60;;
61017;SDS011;48171;51.550;5.434;2023-03-01T02:13:52;23.83;;;11.05;;
61017;SDS011;48171;51.550;5.434;2023-03-01T02:16:19;24.52;;;11.15;;
61017;SDS011;48171;51.550;5.434;2023-03-01T02:18:45;25.55;;;11.23;;
61017;SDS011;48171;51.550;5.434;2023-03-01T02:23:44;21.08;;;10.15;;
61017;SDS011;48171;51.550;5.434;2023-03-01T02:29:04;23.10;;;10.38;;
61017;SDS011;48171;51.550;5.434;2023-03-01T02:31:30;20.10;;;10.07;;
61017;SDS011;48171;51.550;5.434;2023-03-01T02:34:10;26.98;;;11.15;;
61017;SDS011;48171;51.550;5.434;2023-03-01T02:36:48;21.25;;;10.80;;
61017;SDS011;48171;51.550;5.434;2023-03-01T02:39:19;23.20;;;9.65;;
61017;SDS011;48171;51.550;5.434;2023-03-01T02:41:51;22.60;;;10.07;;
61017;SDS011;48171;51.550;5.434;2023-03-01T02:44:19;24.13;;;10.85;;
61017;SDS011;48171;51.550;5.434;2023-03-01T02:46:50;23.90;;;10.00;;
61017;SDS011;48171;51.550;5.434;2023-03-01T02:49:27;23.42;;;9.80;;
61017;SDS011;48171;51.550;5.434;2023-03-01T02:57:28;24.08;;;10.65;;
61017;SDS011;48171;51.550;5.434;2023-03-01T02:59:55;23.40;;;9.75;;
61017;SDS011;48171;51.550;5.434;2023-03-01T03:02:26;24.95;;;10.43;;
61017;SDS011;48171;51.550;5.434;2023-03-01T03:07:29;20.75;;;10.05;;
61017;SDS011;48171;51.550;5.434;2023-03-01T03:09:55;21.83;;;10.32;;
61017;SDS011;48171;51.550;5.434;2023-03-01T03:12:20;25.33;;;9.73;;
61017;SDS011;48171;51.550;5.434;2023-03-01T03:14:45;19.95;;;9.30;;
61017;SDS011;48171;51.550;5.434;2023-03-01T03:17:10;24.42;;;10.35;;
61017;SDS011;48171;51.550;5.434;2023-03-01T03:19:36;23.08;;;9.90;;
61017;SDS011;48171;51.550;5.434;2023-03-01T03:22:01;20.73;;;9.68;;
61017;SDS011;48171;51.550;5.434;2023-03-01T03:24:26;23.13;;;10.02;;
61017;SDS011;48171;51.550;5.434;2023-03-01T03:27:02;21.13;;;9.55;;
61017;SDS011;48171;51.550;5.434;2023-03-01T03:29:28;23.20;;;9.88;;
61017;SDS011;48171;51.550;5.434;2023-03-01T03:31:53;19.52;;;8.43;;
61017;SDS011;48171;51.550;5.434;2023-03-01T03:34:18;21.10;;;9.23;;
61017;SDS011;48171;51.550;5.434;2023-03-01T03:36:44;24.40;;;10.48;;
61017;SDS011;48171;51.550;5.434;2023-03-01T03:39:09;25.02;;;9.30;;
61017;SDS011;48171;51.550;5.434;2023-03-01T03:41:34;21.02;;;8.85;;
61017;SDS011;48171;51.550;5.434;2023-03-01T03:44:00;20.25;;;9.10;;
61017;SDS011;48171;51.550;5.434;2023-03-01T03:46:25;20.80;;;9.25;;
61017;SDS011;48171;51.550;5.434;2023-03-01T03:48:51;18.60;;;8.50;;
61017;SDS011;48171;51.550;5.434;2023-03-01T03:51:16;21.00;;;9.10;;
61017;SDS011;48171;51.550;5.434;2023-03-01T03:53:43;21.58;;;9.10;;
61017;SDS011;48171;51.550;5.434;2023-03-01T03:56:09;18.17;;;8.55;;
61017;SDS011;48171;51.550;5.434;2023-03-01T03:58:35;19.73;;;8.77;;
61017;SDS011;48171;51.550;5.434;2023-03-01T04:01:00;20.70;;;8.30;;
61017;SDS011;48171;51.550;5.434;2023-03-01T04:03:26;22.35;;;8.93;;
61017;SDS011;48171;51.550;5.434;2023-03-01T04:05:53;18.05;;;8.23;;
61017;SDS011;48171;51.550;5.434;2023-03-01T04:08:19;19.42;;;8.65;;
61017;SDS011;48171;51.550;5.434;2023-03-01T04:10:51;21.13;;;8.65;;
61017;SDS011;48171;51.550;5.434;2023-03-01T04:13:22;15.13;;;7.70;;
61017;SDS011;48171;51.550;5.434;2023-03-01T04:15:50;19.45;;;9.20;;
61017;SDS011;48171;51.550;5.434;2023-03-01T04:18:19;22.23;;;9.68;;
61017;SDS011;48171;51.550;5.434;2023-03-01T04:20:46;15.93;;;8.27;;
61017;SDS011;48171;51.550;5.434;2023-03-01T04:25:41;22.00;;;9.52;;
61017;SDS011;48171;51.550;5.434;2023-03-01T04:28:28;18.67;;;8.98;;
61017;SDS011;48171;51.550;5.434;2023-03-01T04:30:54;22.15;;;9.20;;
61017;SDS011;48171;51.550;5.434;2023-03-01T04:33:20;21.90;;;9.20;;
61017;SDS011;48171;51.550;5.434;2023-03-01T04:35:46;21.73;;;9.05;;
61017;SDS011;48171;51.550;5.434;2023-03-01T04:38:14;23.65;;;9.35;;
61017;SDS011;48171;51.550;5.434;2023-03-01T04:40:40;20.92;;;9.10;;
61017;SDS011;48171;51.550;5.434;2023-03-01T04:43:08;19.40;;;9.15;;
61017;SDS011;48171;51.550;5.434;2023-03-01T04:45:34;21.42;;;9.05;;
61017;SDS011;48171;51.550;5.434;2023-03-01T04:47:59;22.80;;;9.43;;
61017;SDS011;48171;51.550;5.434;2023-03-01T04:50:25;21.23;;;9.45;;
61017;SDS011;48171;51.550;5.434;2023-03-01T04:52:50;21.45;;;9.10;;
61017;SDS011;48171;51.550;5.434;2023-03-01T04:55:16;22.75;;;8.60;;
61017;SDS011;48171;51.550;5.434;2023-03-01T04:57:42;24.35;;;9.93;;
61017;SDS011;48171;51.550;5.434;2023-03-01T05:00:08;19.02;;;9.43;;
61017;SDS011;48171;51.550;5.434;2023-03-01T05:02:51;20.30;;;9.30;;
61017;SDS011;48171;51.550;5.434;2023-03-01T05:05:26;20.95;;;9.65;;
61017;SDS011;48171;51.550;5.434;2023-03-01T05:07:54;20.63;;;9.85;;
61017;SDS011;48171;51.550;5.434;2023-03-01T05:10:21;22.08;;;10.05;;
61017;SDS011;48171;51.550;5.434;2023-03-01T05:12:46;23.63;;;9.93;;
61017;SDS011;48171;51.550;5.434;2023-03-01T05:15:12;24.42;;;9.30;;
61017;SDS011;48171;51.550;5.434;2023-03-01T05:17:37;19.58;;;9.50;;
61017;SDS011;48171;51.550;5.434;2023-03-01T05:20:03;24.23;;;9.98;;
61017;SDS011;48171;51.550;5.434;2023-03-01T05:24:58;22.02;;;9.38;;
61017;SDS011;48171;51.550;5.434;2023-03-01T05:27:24;22.35;;;10.07;;
61017;SDS011;48171;51.550;5.434;2023-03-01T05:29:49;20.75;;;10.15;;
61017;SDS011;48171;51.550;5.434;2023-03-01T05:32:14;21.60;;;9.80;;
61017;SDS011;48171;51.550;5.434;2023-03-01T05:34:40;25.63;;;10.82;;
61017;SDS011;48171;51.550;5.434;2023-03-01T05:37:06;19.23;;;10.23;;
61017;SDS011;48171;51.550;5.434;2023-03-01T05:39:32;22.13;;;10.20;;
61017;SDS011;48171;51.550;5.434;2023-03-01T05:41:59;22.38;;;9.82;;
61017;SDS011;48171;51.550;5.434;2023-03-01T05:44:26;23.00;;;10.52;;
61017;SDS011;48171;51.550;5.434;2023-03-01T05:46:52;22.60;;;10.57;;
61017;SDS011;48171;51.550;5.434;2023-03-01T05:49:18;24.17;;;10.32;;
61017;SDS011;48171;51.550;5.434;2023-03-01T05:51:47;26.83;;;10.77;;
61017;SDS011;48171;51.550;5.434;2023-03-01T05:54:13;22.30;;;10.32;;
61017;SDS011;48171;51.550;5.434;2023-03-01T05:56:39;21.45;;;10.25;;
61017;SDS011;48171;51.550;5.434;2023-03-01T05:59:04;25.77;;;10.93;;
61017;SDS011;48171;51.550;5.434;2023-03-01T06:01:31;25.55;;;11.15;;
61017;SDS011;48171;51.550;5.434;2023-03-01T06:03:57;25.20;;;10.68;;
61017;SDS011;48171;51.550;5.434;2023-03-01T06:06:22;22.50;;;10.73;;
61017;SDS011;48171;51.550;5.434;2023-03-01T06:08:49;27.88;;;11.38;;
61017;SDS011;48171;51.550;5.434;2023-03-01T06:11:14;29.77;;;11.90;;
61017;SDS011;48171;51.550;5.434;2023-03-01T06:13:40;22.65;;;11.13;;
61017;SDS011;48171;51.550;5.434;2023-03-01T06:16:07;25.77;;;11.32;;
61017;SDS011;48171;51.550;5.434;2023-03-01T06:18:33;24.38;;;10.93;;
61017;SDS011;48171;51.550;5.434;2023-03-01T06:20:58;21.30;;;10.63;;
61017;SDS011;48171;51.550;5.434;2023-03-01T06:23:23;23.95;;;11.38;;
61017;SDS011;48171;51.550;5.434;2023-03-01T06:25:49;25.05;;;10.77;;
61017;SDS011;48171;51.550;5.434;2023-03-01T06:28:14;25.70;;;11.40;;
61017;SDS011;48171;51.550;5.434;2023-03-01T06:30:40;20.55;;;10.20;;
61017;SDS011;48171;51.550;5.434;2023-03-01T06:33:05;24.85;;;10.70;;
61017;SDS011;48171;51.550;5.434;2023-03-01T06:35:31;27.80;;;11.30;;
61017;SDS011;48171;51.550;5.434;2023-03-01T06:37:57;24.85;;;10.93;;
61017;SDS011;48171;51.550;5.434;2023-03-01T06:40:26;25.30;;;10.52;;
61017;SDS011;48171;51.550;5.434;2023-03-01T06:42:52;24.27;;;11.40;;
61017;SDS011;48171;51.550;5.434;2023-03-01T06:45:18;21.90;;;10.63;;
61017;SDS011;48171;51.550;5.434;2023-03-01T06:47:44;22.20;;;11.15;;
61017;SDS011;48171;51.550;5.434;2023-03-01T06:50:10;28.10;;;10.95;;
61017;SDS011;48171;51.550;5.434;2023-03-01T06:52:36;31.42;;;12.07;;
61017;SDS011;48171;51.550;5.434;2023-03-01T06:55:01;26.33;;;11.73;;
61017;SDS011;48171;51.550;5.434;2023-03-01T06:57:27;24.83;;;11.65;;
61017;SDS011;48171;51.550;5.434;2023-03-01T06:59:53;29.58;;;11.57;;
61017;SDS011;48171;51.550;5.434;2023-03-01T07:02:18;26.83;;;12.60;;
61017;SDS011;48171;51.550;5.434;2023-03-01T07:04:44;25.45;;;11.57;;
61017;SDS011;48171;51.550;5.434;2023-03-01T07:07:09;32.08;;;12.95;;
61017;SDS011;48171;51.550;5.434;2023-03-01T07:09:35;28.92;;;12.05;;
61017;SDS011;48171;51.550;5.434;2023-03-01T07:12:00;28.67;;;13.20;;
61017;SDS011;48171;51.550;5.434;2023-03-01T07:14:26;27.33;;;12.15;;
61017;SDS011;48171;51.550;5.434;2023-03-01T07:16:55;30.75;;;13.07;;
61017;SDS011;48171;51.550;5.434;2023-03-01T07:19:20;25.60;;;11.93;;
61017;SDS011;48171;51.550;5.434;2023-03-01T07:21:46;26.85;;;11.90;;
61017;SDS011;48171;51.550;5.434;2023-03-01T07:24:12;28.92;;;12.27;;
61017;SDS011;48171;51.550;5.434;2023-03-01T07:26:38;33.03;;;13.20;;
61017;SDS011;48171;51.550;5.434;2023-03-01T07:29:04;30.13;;;12.65;;
61017;SDS011;48171;51.550;5.434;2023-03-01T07:31:31;29.08;;;12.25;;
61017;SDS011;48171;51.550;5.434;2023-03-01T07:33:56;26.92;;;12.63;;
61017;SDS011;48171;51.550;5.434;2023-03-01T07:36:22;29.92;;;12.77;;
61017;SDS011;48171;51.550;5.434;2023-03-01T07:38:48;28.80;;;12.40;;
61017;SDS011;48171;51.550;5.434;2023-03-01T07:41:13;27.08;;;11.90;;
61017;SDS011;48171;51.550;5.434;2023-03-01T07:43:39;26.73;;;12.23;;
61017;SDS011;48171;51.550;5.434;2023-03-01T07:46:04;29.92;;;11.63;;
61017;SDS011;48171;51.550;5.434;2023-03-01T07:48:30;31.73;;;12.85;;
61017;SDS011;48171;51.550;5.434;2023-03-01T07:51:00;30.92;;;12.88;;
61017;SDS011;48171;51.550;5.434;2023-03-01T07:53:26;31.05;;;12.68;;
61017;SDS011;48171;51.550;5.434;2023-03-01T07:56:04;31.48;;;12.43;;
61017;SDS011;48171;51.550;5.434;2023-03-01T07:58:31;29.92;;;11.95;;
61017;SDS011;48171;51.550;5.434;2023-03-01T08:01:01;28.75;;;12.32;;
61017;SDS011;48171;51.550;5.434;2023-03-01T08:03:27;34.17;;;13.95;;
61017;SDS011;48171;51.550;5.434;2023-03-01T08:05:52;29.55;;;12.77;;
61017;SDS011;48171;51.550;5.434;2023-03-01T08:08:18;30.90;;;13.63;;
61017;SDS011;48171;51.550;5.434;2023-03-01T08:10:43;27.98;;;12.20;;
61017;SDS011;48171;51.550;5.434;2023-03-01T08:13:08;32.47;;;12.05;;
61017;SDS011;48171;51.550;5.434;2023-03-01T08:15:33;22.88;;;11.68;;
61017;SDS011;48171;51.550;5.434;2023-03-01T08:17:59;35.40;;;13.85;;
61017;SDS011;48171;51.550;5.434;2023-03-01T08:20:24;33.08;;;13.52;;
61017;SDS011;48171;51.550;5.434;2023-03-01T08:22:49;32.70;;;13.32;;
61017;SDS011;48171;51.550;5.434;2023-03-01T08:25:16;28.38;;;13.25;;
61017;SDS011;48171;51.550;5.434;2023-03-01T08:27:41;31.70;;;12.70;;
61017;SDS011;48171;51.550;5.434;2023-03-01T08:30:06;28.58;;;11.93;;
61017;SDS011;48171;51.550;5.434;2023-03-01T08:32:37;32.10;;;11.73;;
61017;SDS011;48171;51.550;5.434;2023-03-01T08:37:28;30.50;;;12.25;;
61017;SDS011;48171;51.550;5.434;2023-03-01T08:39:55;33.20;;;13.13;;
61017;SDS011;48171;51.550;5.434;2023-03-01T08:42:21;30.98;;;12.65;;
61017;SDS011;48171;51.550;5.434;2023-03-01T08:44:46;32.40;;;11.77;;
61017;SDS011;48171;51.550;5.434;2023-03-01T08:47:11;30.75;;;12.43;;
61017;SDS011;48171;51.550;5.434;2023-03-01T08:49:37;29.30;;;12.30;;
61017;SDS011;48171;51.550;5.434;2023-03-01T08:52:02;28.35;;;12.50;;
61017;SDS011;48171;51.550;5.434;2023-03-01T08:54:27;32.72;;;12.05;;
61017;SDS011;48171;51.550;5.434;2023-03-01T08:56:53;29.98;;;12.00;;
61017;SDS011;48171;51.550;5.434;2023-03-01T08:59:18;29.85;;;11.40;;
61017;SDS011;48171;51.550;5.434;2023-03-01T09:01:44;34.72;;;12.70;;
61017;SDS011;48171;51.550;5.434;2023-03-01T09:04:10;41.35;;;12.50;;
61017;SDS011;48171;51.550;5.434;2023-03-01T09:06:36;30.77;;;12.55;;
61017;SDS011;48171;51.550;5.434;2023-03-01T09:09:02;34.08;;;12.48;;
61017;SDS011;48171;51.550;5.434;2023-03-01T09:11:29;28.08;;;11.73;;
61017;SDS011;48171;51.550;5.434;2023-03-01T09:13:54;30.58;;;11.00;;
61017;SDS011;48171;51.550;5.434;2023-03-01T09:16:20;30.65;;;11.85;;
61017;SDS011;48171;51.550;5.434;2023-03-01T09:18:50;34.25;;;12.05;;
61017;SDS011;48171;51.550;5.434;2023-03-01T09:21:17;30.63;;;12.07;;
61017;SDS011;48171;51.550;5.434;2023-03-01T09:23:44;30.20;;;12.30;;
61017;SDS011;48171;51.550;5.434;2023-03-01T09:26:15;30.92;;;10.05;;
61017;SDS011;48171;51.550;5.434;2023-03-01T09:28:43;28.73;;;11.60;;
61017;SDS011;48171;51.550;5.434;2023-03-01T09:31:09;30.73;;;11.70;;
61017;SDS011;48171;51.550;5.434;2023-03-01T09:33:37;30.70;;;12.10;;
61017;SDS011;48171;51.550;5.434;2023-03-01T09:36:04;29.80;;;12.48;;
61017;SDS011;48171;51.550;5.434;2023-03-01T09:38:35;29.40;;;11.05;;
61017;SDS011;48171;51.550;5.434;2023-03-01T09:41:01;36.65;;;13.20;;
61017;SDS011;48171;51.550;5.434;2023-03-01T09:43:46;32.53;;;12.38;;
61017;SDS011;48171;51.550;5.434;2023-03-01T09:46:18;31.88;;;12.27;;
61017;SDS011;48171;51.550;5.434;2023-03-01T09:48:57;30.60;;;12.18;;
61017;SDS011;48171;51.550;5.434;2023-03-01T09:51:35;26.90;;;11.35;;
61017;SDS011;48171;51.550;5.434;2023-03-01T09:54:04;29.85;;;12.07;;
61017;SDS011;48171;51.550;5.434;2023-03-01T09:56:37;34.70;;;11.88;;
61017;SDS011;48171;51.550;5.434;2023-03-01T10:02:04;32.13;;;11.23;;
61017;SDS011;48171;51.550;5.434;2023-03-01T10:07:19;29.63;;;11.68;;
61017;SDS011;48171;51.550;5.434;2023-03-01T10:12:13;28.33;;;11.18;;
61017;SDS011;48171;51.550;5.434;2023-03-01T10:14:44;34.00;;;11.77;;
61017;SDS011;48171;51.550;5.434;2023-03-01T10:17:24;35.22;;;12.98;;
61017;SDS011;48171;51.550;5.434;2023-03-01T10:19:55;33.45;;;12.10;;
61017;SDS011;48171;51.550;5.434;2023-03-01T10:22:29;28.40;;;11.15;;
61017;SDS011;48171;51.550;5.434;2023-03-01T10:24:57;36.70;;;11.98;;
61017;SDS011;48171;51.550;5.434;2023-03-01T10:27:25;34.67;;;12.23;;
61017;SDS011;48171;51.550;5.434;2023-03-01T10:30:19;26.17;;;11.38;;
61017;SDS011;48171;51.550;5.434;2023-03-01T10:32:48;27.23;;;11.68;;
61017;SDS011;48171;51.550;5.434;2023-03-01T10:35:23;35.40;;;12.80;;
61017;SDS011;48171;51.550;5.434;2023-03-01T10:37:57;31.55;;;11.23;;
61017;SDS011;48171;51.550;5.434;2023-03-01T10:40:31;30.98;;;12.32;;
61017;SDS011;48171;51.550;5.434;2023-03-01T10:42:58;27.40;;;11.95;;
61017;SDS011;48171;51.550;5.434;2023-03-01T10:45:35;38.40;;;13.50;;
61017;SDS011;48171;51.550;5.434;2023-03-01T10:48:08;30.15;;;11.35;;
61017;SDS011;48171;51.550;5.434;2023-03-01T10:50:36;29.80;;;11.82;;
61017;SDS011;48171;51.550;5.434;2023-03-01T10:53:03;25.85;;;10.23;;
61017;SDS011;48171;51.550;5.434;2023-03-01T10:55:39;29.20;;;11.68;;
61017;SDS011;48171;51.550;5.434;2023-03-01T11:03:40;28.42;;;11.23;;
61017;SDS011;48171;51.550;5.434;2023-03-01T11:13:52;32.38;;;12.20;;
61017;SDS011;48171;51.550;5.434;2023-03-01T11:16:30;30.02;;;12.15;;
61017;SDS011;48171;51.550;5.434;2023-03-01T11:18:59;32.97;;;12.15;;
61017;SDS011;48171;51.550;5.434;2023-03-01T11:21:33;33.85;;;12.63;;
61017;SDS011;48171;51.550;5.434;2023-03-01T11:24:02;30.45;;;11.85;;
61017;SDS011;48171;51.550;5.434;2023-03-01T11:26:30;28.73;;;11.50;;
61017;SDS011;48171;51.550;5.434;2023-03-01T11:29:02;31.02;;;12.10;;
61017;SDS011;48171;51.550;5.434;2023-03-01T11:31:31;28.27;;;12.05;;
61017;SDS011;48171;51.550;5.434;2023-03-01T11:33:59;28.98;;;11.82;;
61017;SDS011;48171;51.550;5.434;2023-03-01T11:36:41;30.55;;;11.30;;
61017;SDS011;48171;51.550;5.434;2023-03-01T11:39:20;27.10;;;11.48;;
61017;SDS011;48171;51.550;5.434;2023-03-01T11:41:59;30.13;;;12.10;;
61017;SDS011;48171;51.550;5.434;2023-03-01T11:44:30;31.08;;;12.15;;
61017;SDS011;48171;51.550;5.434;2023-03-01T11:54:55;28.55;;;11.48;;
61017;SDS011;48171;51.550;5.434;2023-03-01T12:00:14;29.60;;;11.65;;
61017;SDS011;48171;51.550;5.434;2023-03-01T12:08:46;31.58;;;11.93;;
61017;SDS011;48171;51.550;5.434;2023-03-01T12:41:39;22.70;;;10.40;;
61017;SDS011;48171;51.550;5.434;2023-03-01T12:47:26;24.48;;;10.80;;
61017;SDS011;48171;51.550;5.434;2023-03-01T12:50:04;20.77;;;10.00;;
61017;SDS011;48171;51.550;5.434;2023-03-01T12:52:41;22.25;;;10.18;;
61017;SDS011;48171;51.550;5.434;2023-03-01T12:55:43;33.30;;;11.63;;
61017;SDS011;48171;51.550;5.434;2023-03-01T12:58:13;26.55;;;10.45;;
61017;SDS011;48171;51.550;5.434;2023-03-01T13:07:11;26.25;;;10.98;;
61017;SDS011;48171;51.550;5.434;2023-03-01T13:15:24;23.48;;;10.10;;
61017;SDS011;48171;51.550;5.434;2023-03-01T13:17:55;24.33;;;9.90;;
61017;SDS011;48171;51.550;5.434;2023-03-01T13:20:24;22.23;;;9.57;;
61017;SDS011;48171;51.550;5.434;2023-03-01T13:23:01;21.55;;;9.85;;
61017;SDS011;48171;51.550;5.434;2023-03-01T13:25:30;24.08;;;10.68;;
61017;SDS011;48171;51.550;5.434;2023-03-01T13:30:58;24.80;;;10.02;;
61017;SDS011;48171;51.550;5.434;2023-03-01T13:35:53;21.20;;;10.88;;
61017;SDS011;48171;51.550;5.434;2023-03-01T13:41:09;19.98;;;9.65;;
61017;SDS011;48171;51.550;5.434;2023-03-01T13:43:35;24.00;;;10.57;;
61017;SDS011;48171;51.550;5.434;2023-03-01T13:46:15;18.13;;;10.50;;
61017;SDS011;48171;51.550;5.434;2023-03-01T13:48:45;21.92;;;9.43;;
61017;SDS011;48171;51.550;5.434;2023-03-01T13:51:15;19.40;;;9.30;;
61017;SDS011;48171;51.550;5.434;2023-03-01T13:53:47;22.90;;;9.48;;
61017;SDS011;48171;51.550;5.434;2023-03-01T13:56:20;21.17;;;9.77;;
61017;SDS011;48171;51.550;5.434;2023-03-01T14:01:31;25.98;;;9.60;;
61017;SDS011;48171;51.550;5.434;2023-03-01T14:03:58;17.38;;;9.10;;
61017;SDS011;48171;51.550;5.434;2023-03-01T14:06:26;20.67;;;9.85;;
61017;SDS011;48171;51.550;5.434;2023-03-01T14:09:09;19.42;;;8.90;;
61017;SDS011;48171;51.550;5.434;2023-03-01T14:11:55;17.02;;;8.82;;
61017;SDS011;48171;51.550;5.434;2023-03-01T14:20:29;24.13;;;9.20;;
61017;SDS011;48171;51.550;5.434;2023-03-01T14:22:58;18.80;;;8.25;;
61017;SDS011;48171;51.550;5.434;2023-03-01T14:28:34;22.10;;;9.15;;
61017;SDS011;48171;51.550;5.434;2023-03-01T14:33:33;22.50;;;9.63;;
61017;SDS011;48171;51.550;5.434;2023-03-01T14:36:10;21.05;;;9.68;;
61017;SDS011;48171;51.550;5.434;2023-03-01T14:38:39;20.88;;;9.60;;
61017;SDS011;48171;51.550;5.434;2023-03-01T14:43:38;19.58;;;9.23;;
61017;SDS011;48171;51.550;5.434;2023-03-01T14:46:25;17.63;;;8.98;;
61017;SDS011;48171;51.550;5.434;2023-03-01T14:48:55;21.15;;;9.63;;
61017;SDS011;48171;51.550;5.434;2023-03-01T14:51:26;19.52;;;9.48;;
61017;SDS011;48171;51.550;5.434;2023-03-01T14:53:51;18.83;;;9.55;;
61017;SDS011;48171;51.550;5.434;2023-03-01T14:56:17;24.75;;;9.27;;
61017;SDS011;48171;51.550;5.434;2023-03-01T14:58:43;23.13;;;9.77;;
61017;SDS011;48171;51.550;5.434;2023-03-01T15:01:10;20.90;;;10.63;;
61017;SDS011;48171;51.550;5.434;2023-03-01T15:03:46;20.65;;;8.93;;
61017;SDS011;48171;51.550;5.434;2023-03-01T15:06:15;18.40;;;8.98;;
61017;SDS011;48171;51.550;5.434;2023-03-01T15:08:46;20.45;;;8.90;;
61017;SDS011;48171;51.550;5.434;2023-03-01T15:11:22;19.50;;;9.40;;
61017;SDS011;48171;51.550;5.434;2023-03-01T15:13:50;22.73;;;10.45;;
61017;SDS011;48171;51.550;5.434;2023-03-01T15:16:34;18.80;;;9.38;;
61017;SDS011;48171;51.550;5.434;2023-03-01T15:19:06;19.58;;;9.32;;
61017;SDS011;48171;51.550;5.434;2023-03-01T15:21:36;20.40;;;9.30;;
61017;SDS011;48171;51.550;5.434;2023-03-01T15:24:08;19.33;;;10.15;;
61017;SDS011;48171;51.550;5.434;2023-03-01T15:29:21;22.13;;;9.80;;
61017;SDS011;48171;51.550;5.434;2023-03-01T15:32:01;21.05;;;10.30;;
61017;SDS011;48171;51.550;5.434;2023-03-01T15:34:45;22.38;;;8.95;;
61017;SDS011;48171;51.550;5.434;2023-03-01T15:40:17;20.70;;;9.32;;
61017;SDS011;48171;51.550;5.434;2023-03-01T15:42:46;21.80;;;9.35;;
61017;SDS011;48171;51.550;5.434;2023-03-01T15:47:47;20.05;;;9.48;;
61017;SDS011;48171;51.550;5.434;2023-03-01T15:50:18;21.63;;;9.63;;
61017;SDS011;48171;51.550;5.434;2023-03-01T15:52:49;19.75;;;10.57;;
61017;SDS011;48171;51.550;5.434;2023-03-01T15:55:17;24.00;;;10.40;;
61017;SDS011;48171;51.550;5.434;2023-03-01T15:57:45;24.23;;;10.52;;
61017;SDS011;48171;51.550;5.434;2023-03-01T16:00:11;24.02;;;9.60;;
61017;SDS011;48171;51.550;5.434;2023-03-01T16:02:38;19.25;;;9.65;;
61017;SDS011;48171;51.550;5.434;2023-03-01T16:05:28;20.77;;;9.80;;
61017;SDS011;48171;51.550;5.434;2023-03-01T16:07:53;20.88;;;9.93;;
61017;SDS011;48171;51.550;5.434;2023-03-01T16:10:19;18.75;;;9.48;;
61017;SDS011;48171;51.550;5.434;2023-03-01T16:12:49;20.52;;;9.82;;
61017;SDS011;48171;51.550;5.434;2023-03-01T16:15:21;23.50;;;10.32;;
61017;SDS011;48171;51.550;5.434;2023-03-01T16:17:49;22.70;;;9.55;;
61017;SDS011;48171;51.550;5.434;2023-03-01T16:20:15;19.10;;;9.57;;
61017;SDS011;48171;51.550;5.434;2023-03-01T16:22:43;19.85;;;9.48;;
61017;SDS011;48171;51.550;5.434;2023-03-01T16:25:16;19.65;;;10.13;;
61017;SDS011;48171;51.550;5.434;2023-03-01T16:27:43;19.27;;;9.43;;
61017;SDS011;48171;51.550;5.434;2023-03-01T16:30:10;20.58;;;9.45;;
61017;SDS011;48171;51.550;5.434;2023-03-01T16:32:44;21.73;;;10.60;;
61017;SDS011;48171;51.550;5.434;2023-03-01T16:35:11;20.00;;;9.50;;
61017;SDS011;48171;51.550;5.434;2023-03-01T16:37:39;18.85;;;8.93;;
61017;SDS011;48171;51.550;5.434;2023-03-01T16:40:24;16.98;;;9.52;;
61017;SDS011;48171;51.550;5.434;2023-03-01T16:42:54;19.23;;;8.77;;
61017;SDS011;48171;51.550;5.434;2023-03-01T16:45:26;19.33;;;9.23;;
61017;SDS011;48171;51.550;5.434;2023-03-01T16:47:53;19.08;;;8.27;;
61017;SDS011;48171;51.550;5.434;2023-03-01T16:50:18;18.42;;;9.18;;
61017;SDS011;48171;51.550;5.434;2023-03-01T16:52:44;18.40;;;8.82;;